Time;durP1;ratioP1;P1;durP2;ratioP2;P2;SDS_P1;SDS_P2;PMS_P1;PMS_P2;Temp;Humidity;BMP_temperature;BMP_pressure;BME280_temperature;BME280_humidity;BME280_pressure;Samples;Min_cycle;Max_cycle;Signal;HPM_P1;HPM_P2
2022/09/10 00:02:00;;;;;;;11.45;8.30;;;;;;;17.89;68.41;99223.03;5069837;28;20102;-62
2022/09/10 00:04:27;;;;;;;7.82;7.07;;;;;;;17.92;68.24;99228.06;5069655;28;20063;-64
2022/09/10 00:06:54;;;;;;;10.05;8.20;;;;;;;17.94;68.17;99221.63;5069608;28;20476;-62
2022/09/10 00:09:21;;;;;;;8.50;7.68;;;;;;;17.95;68.22;99220.63;5069550;28;20378;-61
2022/09/10 00:11:48;;;;;;;8.13;7.32;;;;;;;17.96;68.00;99219.66;5070177;28;20102;-61
2022/09/10 00:14:19;;;;;;;10.75;7.90;;;;;;;17.97;68.54;99215.16;5070160;28;20497;-61
2022/09/10 00:16:46;;;;;;;8.77;7.57;;;;;;;17.99;68.16;99218.53;5072439;28;20091;-61
2022/09/10 00:19:14;;;;;;;8.95;8.00;;;;;;;17.98;68.31;99217.66;5072782;28;20589;-61
2022/09/10 00:21:43;;;;;;;9.95;8.40;;;;;;;17.98;68.20;99217.66;5072291;28;20048;-63
2022/09/10 00:24:09;;;;;;;8.63;7.82;;;;;;;18.00;68.44;99212.19;5072295;28;20045;-62
2022/09/10 00:26:38;;;;;;;8.60;7.75;;;;;;;18.01;68.21;99218.38;5073290;28;20064;-62
2022/09/10 00:29:07;;;;;;;9.98;8.43;;;;;;;18.01;68.44;99215.72;5072239;28;20400;-61
2022/09/10 00:31:34;;;;;;;11.13;8.55;;;;;;;18.01;68.29;99219.19;5071947;28;20385;-61
2022/09/10 00:34:04;;;;;;;10.68;8.18;;;;;;;18.02;68.53;99214.72;5073459;28;20052;-62
2022/09/10 00:36:34;;;;;;;9.23;8.30;;;;;;;18.02;68.59;99218.19;5071888;28;20139;-63
2022/09/10 00:39:05;;;;;;;9.55;8.48;;;;;;;18.02;68.72;99220.03;5072952;28;20446;-61
2022/09/10 00:41:33;;;;;;;12.45;8.90;;;;;;;18.03;68.29;99219.06;5073018;28;20086;-61
2022/09/10 00:44:02;;;;;;;10.45;8.57;;;;;;;18.03;68.74;99224.38;5071660;28;20147;-63
2022/09/10 00:46:32;;;;;;;9.05;8.10;;;;;;;18.03;68.45;99230.56;5072727;28;20078;-62
2022/09/10 00:49:02;;;;;;;10.05;8.13;;;;;;;18.02;68.67;99220.88;5072523;28;20492;-62
2022/09/10 00:51:34;;;;;;;11.85;8.32;;;;;;;18.01;68.67;99223.69;5072677;28;20416;-62
2022/09/10 00:54:02;;;;;;;10.65;8.48;;;;;;;18.03;68.53;99229.69;5072874;28;20088;-63
2022/09/10 00:56:31;;;;;;;12.27;8.32;;;;;;;18.00;68.80;99225.50;5071637;28;20083;-62
2022/09/10 00:58:59;;;;;;;13.13;8.25;;;;;;;17.99;68.59;99231.84;5071519;28;20106;-61
2022/09/10 01:01:25;;;;;;;12.77;8.45;;;;;;;18.00;68.53;99230.00;5072598;28;20136;-61
2022/09/10 01:03:53;;;;;;;11.93;7.97;;;;;;;17.99;68.82;99231.84;5072637;28;20045;-62
2022/09/10 01:06:20;;;;;;;11.07;8.35;;;;;;;18.00;68.53;99238.81;5071453;28;20076;-62
2022/09/10 01:08:46;;;;;;;12.43;8.57;;;;;;;18.01;68.91;99242.34;5072248;28;20105;-64
2022/09/10 01:11:21;;;;;;;9.82;8.32;;;;;;;18.01;68.90;99235.16;5072662;28;20048;-62
2022/09/10 01:14:00;;;;;;;11.43;8.40;;;;;;;18.01;69.37;99243.16;5072359;28;20382;-62
2022/09/10 01:17:17;;;;;;;11.88;8.40;;;;;;;18.01;69.61;99245.00;5072543;28;20476;-62
2022/09/10 01:20:02;;;;;;;9.45;8.35;;;;;;;18.03;69.44;99246.53;5067486;28;20056;-62
2022/09/10 01:22:49;;;;;;;10.55;8.43;;;;;;;18.05;69.65;99235.72;5072100;28;20194;-63
2022/09/10 01:25:54;;;;;;;13.50;9.05;;;;;;;18.07;69.46;99247.91;5071906;28;20074;-61
2022/09/10 01:28:38;;;;;;;11.38;7.90;;;;;;;18.13;69.34;99248.31;5071574;28;20580;-61
2022/09/10 01:31:44;;;;;;;11.18;8.02;;;;;;;18.15;69.45;99247.19;5071012;28;20139;-61
2022/09/10 01:34:40;;;;;;;9.88;8.35;;;;;;;18.19;69.13;99253.03;5065637;28;20071;-62
2022/09/10 01:37:13;;;;;;;9.07;7.93;;;;;;;18.25;68.78;99255.13;5060872;28;20460;-64
2022/09/10 01:39:41;;;;;;;10.20;8.18;;;;;;;18.27;68.62;99247.00;5070087;28;20109;-62
2022/09/10 01:42:07;;;;;;;9.68;8.10;;;;;;;18.27;68.38;99255.78;5071786;28;20044;-63
2022/09/10 01:44:48;;;;;;;9.07;8.00;;;;;;;18.25;69.11;99254.28;5071981;28;20496;-61
2022/09/10 01:47:34;;;;;;;10.27;8.75;;;;;;;18.26;69.23;99250.63;5070529;28;20087;-62
2022/09/10 01:50:03;;;;;;;13.25;8.38;;;;;;;18.31;68.80;99248.34;5070879;28;20045;-62
2022/09/10 01:52:48;;;;;;;12.93;8.95;;;;;;;18.29;69.20;99256.50;5070260;28;20045;-62
2022/09/10 01:55:36;;;;;;;9.95;7.75;;;;;;;18.33;69.16;99255.22;5071536;28;20583;-62
2022/09/10 01:58:20;;;;;;;12.63;7.20;;;;;;;18.35;69.04;99249.72;5071498;28;20084;-61
2022/09/10 02:01:23;;;;;;;10.80;7.75;;;;;;;18.36;69.07;99251.41;5071222;28;20083;-62
2022/09/10 02:03:55;;;;;;;9.77;7.35;;;;;;;18.40;68.55;99250.13;5070212;28;20053;-61
2022/09/10 02:06:26;;;;;;;7.75;6.70;;;;;;;18.40;68.32;99249.28;5069831;28;20492;-62
2022/09/10 02:08:55;;;;;;;8.40;6.75;;;;;;;18.39;68.32;99250.25;5071462;28;20080;-60
2022/09/10 02:11:22;;;;;;;9.55;6.93;;;;;;;18.39;68.34;99242.28;5070916;28;20504;-63
2022/09/10 02:13:49;;;;;;;10.30;7.10;;;;;;;18.40;68.71;99246.59;5071370;28;20450;-62
2022/09/10 02:16:25;;;;;;;7.25;6.55;;;;;;;18.37;68.86;99247.75;5071325;28;20049;-62
2022/09/10 02:18:52;;;;;;;9.85;7.10;;;;;;;18.41;68.56;99243.78;5070982;28;20478;-64
2022/09/10 02:21:19;;;;;;;8.63;6.72;;;;;;;18.43;68.17;99246.31;5070869;28;20044;-64
2022/09/10 02:23:51;;;;;;;8.63;7.47;;;;;;;18.41;68.77;99240.28;5070507;28;20135;-62
2022/09/10 02:26:17;;;;;;;9.50;6.70;;;;;;;18.43;68.10;99239.13;5069841;28;20144;-62
2022/09/10 02:28:44;;;;;;;9.40;6.97;;;;;;;18.41;68.50;99241.13;5070789;28;20049;-61
2022/09/10 02:31:11;;;;;;;11.68;7.00;;;;;;;18.41;68.61;99242.94;5071044;28;20059;-62
2022/09/10 02:33:38;;;;;;;9.75;7.65;;;;;;;18.41;68.32;99245.59;5070803;28;20098;-62
2022/09/10 02:36:05;;;;;;;10.55;7.25;;;;;;;18.40;68.31;99247.47;5070851;28;20048;-62
2022/09/10 02:38:32;;;;;;;8.90;7.18;;;;;;;18.39;68.23;99247.59;5069866;28;20075;-64
2022/09/10 02:40:58;;;;;;;9.80;7.28;;;;;;;18.37;68.18;99247.75;5070876;28;20135;-64
2022/09/10 02:43:26;;;;;;;9.63;7.05;;;;;;;18.35;68.16;99258.56;5070541;28;20094;-61
2022/09/10 02:45:56;;;;;;;8.57;6.65;;;;;;;18.32;68.60;99245.53;5069390;28;20540;-61
2022/09/10 02:48:25;;;;;;;10.90;7.15;;;;;;;18.32;68.65;99256.19;5069135;28;20056;-62
2022/09/10 02:50:53;;;;;;;9.32;7.63;;;;;;;18.30;68.35;99252.00;5070588;28;20469;-64
2022/09/10 02:53:20;;;;;;;9.80;7.50;;;;;;;18.31;68.49;99256.31;5070972;28;20083;-61
2022/09/10 02:55:47;;;;;;;12.10;7.30;;;;;;;18.29;68.71;99247.66;5070506;28;20080;-61
2022/09/10 02:58:15;;;;;;;10.02;7.75;;;;;;;18.29;68.89;99245.84;5069864;28;20148;-62
2022/09/10 03:00:43;;;;;;;9.88;7.60;;;;;;;18.30;68.66;99234.19;5069322;28;20133;-62
2022/09/10 03:03:10;;;;;;;10.82;7.53;;;;;;;18.30;68.66;99241.34;5069222;28;20500;-62
2022/09/10 03:05:37;;;;;;;13.13;8.15;;;;;;;18.30;68.74;99236.84;5070247;28;20131;-61
2022/09/10 03:08:05;;;;;;;14.88;8.02;;;;;;;18.31;68.48;99235.84;5068815;28;20423;-61
2022/09/10 03:10:31;;;;;;;10.43;7.65;;;;;;;18.31;68.85;99227.03;5070418;28;20094;-63
2022/09/10 03:12:59;;;;;;;9.32;7.95;;;;;;;18.30;68.83;99228.00;5070482;28;20048;-61
2022/09/10 03:15:26;;;;;;;14.60;8.50;;;;;;;18.30;68.69;99228.00;5070151;28;20479;-62
2022/09/10 03:17:53;;;;;;;8.70;7.82;;;;;;;18.30;68.67;99230.69;5069048;28;20107;-63
2022/09/10 03:20:21;;;;;;;12.43;8.65;;;;;;;18.28;68.28;99227.34;5070150;28;20461;-63
2022/09/10 03:22:50;;;;;;;9.52;8.18;;;;;;;18.26;68.79;99229.31;5070337;28;20056;-62
2022/09/10 03:25:21;;;;;;;11.63;8.15;;;;;;;18.24;68.70;99237.44;5070247;28;20063;-61
2022/09/10 03:27:48;;;;;;;11.18;8.48;;;;;;;18.25;68.66;99232.97;5069223;28;20040;-62
2022/09/10 03:30:14;;;;;;;12.02;9.05;;;;;;;18.23;68.89;99231.28;5069907;28;20492;-62
2022/09/10 03:32:41;;;;;;;11.43;9.52;;;;;;;18.22;68.75;99234.09;5070465;28;20099;-62
2022/09/10 03:35:08;;;;;;;11.27;9.50;;;;;;;18.22;68.87;99242.09;5070472;28;20049;-61
2022/09/10 03:37:35;;;;;;;15.55;8.57;;;;;;;18.20;68.87;99239.56;5069827;28;20044;-61
2022/09/10 03:40:02;;;;;;;13.13;9.90;;;;;;;18.21;69.08;99243.09;5069835;28;20056;-64
2022/09/10 03:42:29;;;;;;;12.80;9.77;;;;;;;18.22;68.91;99242.09;5068756;28;20060;-61
2022/09/10 03:44:55;;;;;;;13.20;10.07;;;;;;;18.24;69.10;99242.78;5070065;28;20056;-62
2022/09/10 03:47:22;;;;;;;12.50;9.38;;;;;;;18.25;68.99;99239.13;5069882;28;20417;-63
2022/09/10 03:49:49;;;;;;;12.75;9.02;;;;;;;18.25;69.16;99238.28;5071083;28;20080;-61
2022/09/10 03:52:16;;;;;;;11.38;9.77;;;;;;;18.26;68.92;99246.13;5074335;28;20535;-61
2022/09/10 03:54:44;;;;;;;15.00;10.75;;;;;;;18.27;68.77;99247.81;5073586;28;20044;-61
2022/09/10 03:57:11;;;;;;;14.10;10.02;;;;;;;18.27;68.64;99242.47;5073564;28;20048;-62
2022/09/10 03:59:40;;;;;;;13.38;11.18;;;;;;;18.26;68.93;99246.13;5073494;28;20143;-62
2022/09/10 04:02:08;;;;;;;13.38;11.23;;;;;;;18.26;68.77;99248.81;5073679;28;20053;-64
2022/09/10 04:04:36;;;;;;;12.18;10.18;;;;;;;18.27;68.84;99247.00;5072290;28;20067;-62
2022/09/10 04:07:03;;;;;;;12.07;9.50;;;;;;;18.29;69.09;99247.66;5073732;28;20568;-62
2022/09/10 04:09:31;;;;;;;13.63;10.82;;;;;;;18.31;69.09;99243.00;5073150;28;20084;-60
2022/09/10 04:11:58;;;;;;;18.80;12.00;;;;;;;18.32;68.75;99242.84;5073357;28;20434;-61
2022/09/10 04:14:25;;;;;;;18.67;11.80;;;;;;;18.34;69.08;99248.03;5072172;28;20092;-62
2022/09/10 04:16:52;;;;;;;14.40;12.60;;;;;;;18.34;68.62;99248.88;5073597;28;20041;-63
2022/09/10 04:19:19;;;;;;;16.75;12.77;;;;;;;18.34;68.64;99248.88;5072817;28;20095;-64
2022/09/10 04:21:45;;;;;;;18.17;13.70;;;;;;;18.34;68.54;99254.22;5073555;28;20135;-62
2022/09/10 04:24:12;;;;;;;15.38;12.70;;;;;;;18.32;68.59;99253.50;5073151;28;20064;-62
2022/09/10 04:26:38;;;;;;;13.75;12.35;;;;;;;18.30;68.68;99252.00;5072957;28;20476;-61
2022/09/10 04:29:05;;;;;;;18.38;12.48;;;;;;;18.30;68.32;99254.66;5072522;28;20467;-61
2022/09/10 04:31:32;;;;;;;16.88;12.73;;;;;;;18.28;68.57;99265.47;5073131;28;20056;-62
2022/09/10 04:34:00;;;;;;;13.77;11.30;;;;;;;18.26;68.62;99256.78;5072042;28;20059;-61
2022/09/10 04:36:27;;;;;;;14.77;11.65;;;;;;;18.25;68.57;99257.78;5073340;28;20084;-62
2022/09/10 04:38:53;;;;;;;14.48;11.95;;;;;;;18.24;68.69;99258.75;5072882;28;20052;-61
2022/09/10 04:41:20;;;;;;;15.82;11.60;;;;;;;18.22;68.60;99261.59;5072719;28;20083;-61
2022/09/10 04:43:47;;;;;;;13.52;11.68;;;;;;;18.22;68.76;99266.91;5072815;28;20048;-61
2022/09/10 04:46:13;;;;;;;16.73;11.43;;;;;;;18.22;68.49;99260.75;5072889;28;20105;-61
2022/09/10 04:48:40;;;;;;;13.13;11.55;;;;;;;18.20;68.62;99263.56;5072704;28;20049;-62
2022/09/10 04:51:12;;;;;;;15.60;10.95;;;;;;;18.19;68.80;99266.34;5072872;28;20091;-61
2022/09/10 04:53:44;;;;;;;13.85;10.57;;;;;;;18.19;68.80;99274.34;5072854;28;20083;-62
2022/09/10 04:56:11;;;;;;;14.40;11.20;;;;;;;18.17;68.70;99268.34;5072800;28;20084;-62
2022/09/10 04:58:37;;;;;;;13.65;11.05;;;;;;;18.17;68.87;99268.34;5072681;28;20097;-64
2022/09/10 05:01:05;;;;;;;13.30;11.13;;;;;;;18.16;68.92;99269.34;5072052;28;20045;-62
2022/09/10 05:03:32;;;;;;;14.18;11.02;;;;;;;18.17;68.89;99271.00;5072702;28;20127;-62
2022/09/10 05:05:59;;;;;;;13.32;11.60;;;;;;;18.17;68.71;99273.69;5072653;28;20147;-62
2022/09/10 05:08:25;;;;;;;14.05;11.82;;;;;;;18.17;68.69;99271.84;5070542;28;20080;-61
2022/09/10 05:10:52;;;;;;;13.13;11.73;;;;;;;18.17;68.99;99274.50;5072882;28;20490;-63
2022/09/10 05:13:18;;;;;;;13.82;12.18;;;;;;;18.17;68.80;99271.00;5072180;28;20083;-62
2022/09/10 05:15:45;;;;;;;14.85;11.82;;;;;;;18.17;68.67;99271.00;5072226;28;20513;-62
2022/09/10 05:18:12;;;;;;;15.75;12.85;;;;;;;18.17;68.97;99269.16;5071944;28;20086;-62
2022/09/10 05:20:38;;;;;;;17.65;13.68;;;;;;;18.18;68.80;99264.69;5072238;28;20131;-63
2022/09/10 05:23:05;;;;;;;18.25;13.95;;;;;;;18.20;68.99;99268.03;5071415;28;20048;-62
2022/09/10 05:25:33;;;;;;;17.27;14.02;;;;;;;18.19;68.88;99269.03;5071127;28;20084;-61
2022/09/10 05:28:00;;;;;;;17.92;14.15;;;;;;;18.21;68.84;99275.06;5071818;28;20488;-62
2022/09/10 05:30:31;;;;;;;18.63;13.98;;;;;;;18.21;69.03;99273.22;5071918;28;20084;-62
2022/09/10 05:33:01;;;;;;;19.10;14.50;;;;;;;18.20;69.23;99273.34;5072053;28;20078;-62
2022/09/10 05:35:29;;;;;;;21.23;13.57;;;;;;;18.22;68.79;99274.06;5071263;28;20052;-62
2022/09/10 05:37:56;;;;;;;17.92;13.52;;;;;;;18.22;68.75;99282.06;5070804;28;20053;-64
2022/09/10 05:40:24;;;;;;;18.48;14.52;;;;;;;18.24;69.01;99282.72;5069066;28;20056;-63
2022/09/10 05:42:50;;;;;;;16.63;13.75;;;;;;;18.25;68.86;99275.59;5070409;28;20135;-63
2022/09/10 05:45:19;;;;;;;18.08;14.07;;;;;;;18.28;69.42;99291.28;5071373;28;20454;-61
2022/09/10 05:47:46;;;;;;;19.38;14.02;;;;;;;18.30;68.96;99287.47;5071671;28;20045;-63
2022/09/10 05:50:13;;;;;;;18.38;14.30;;;;;;;18.33;69.29;99283.69;5071175;28;20139;-64
2022/09/10 05:52:40;;;;;;;15.93;13.00;;;;;;;18.36;69.14;99283.38;5070580;28;20049;-61
2022/09/10 05:55:07;;;;;;;16.52;13.40;;;;;;;18.39;69.42;99285.72;5071376;28;20136;-62
2022/09/10 05:57:34;;;;;;;17.75;13.10;;;;;;;18.42;69.12;99276.59;5069647;28;20098;-63
2022/09/10 06:00:04;;;;;;;14.55;12.32;;;;;;;18.47;69.27;99285.00;5071308;28;20078;-61
2022/09/10 06:02:32;;;;;;;15.23;11.68;;;;;;;18.51;69.21;99286.38;5071390;28;20040;-64
2022/09/10 06:04:59;;;;;;;15.65;10.63;;;;;;;18.54;69.07;99279.91;5070966;28;20049;-61
2022/09/10 06:07:28;;;;;;;14.45;10.80;;;;;;;18.58;68.75;99286.59;5071285;28;20080;-62
2022/09/10 06:09:56;;;;;;;13.65;10.25;;;;;;;18.59;68.71;99289.13;5070675;28;20480;-62
2022/09/10 06:12:23;;;;;;;13.80;8.95;;;;;;;18.62;68.79;99301.31;5070213;28;20056;-62
2022/09/10 06:14:49;;;;;;;11.40;8.68;;;;;;;18.64;68.72;99303.81;5070631;28;20087;-63
2022/09/10 06:17:16;;;;;;;13.18;8.38;;;;;;;18.66;68.36;99296.50;5069238;28;20083;-63
2022/09/10 06:19:43;;;;;;;11.70;8.15;;;;;;;18.67;68.79;99299.03;5069824;28;20090;-62
2022/09/10 06:22:11;;;;;;;13.93;8.68;;;;;;;18.69;68.69;99298.88;5070996;28;20091;-64
2022/09/10 06:24:38;;;;;;;9.63;7.47;;;;;;;18.71;68.41;99302.22;5071135;28;20095;-62
2022/09/10 06:27:05;;;;;;;12.10;7.53;;;;;;;18.71;68.51;99292.41;5070733;28;20076;-62
2022/09/10 06:29:32;;;;;;;8.02;6.13;;;;;;;18.75;68.72;99298.25;5070417;28;20132;-63
2022/09/10 06:31:59;;;;;;;6.78;5.90;;;;;;;18.78;68.56;99297.94;5070909;28;20546;-61
2022/09/10 06:34:25;;;;;;;8.77;5.45;;;;;;;18.79;68.47;99299.63;5070991;28;20064;-61
2022/09/10 06:36:52;;;;;;;8.95;5.63;;;;;;;18.81;68.19;99305.66;5070861;28;20044;-62
2022/09/10 06:39:18;;;;;;;8.50;5.15;;;;;;;18.83;68.31;99305.47;5069940;28;20105;-62
2022/09/10 06:41:46;;;;;;;10.48;5.80;;;;;;;18.84;68.22;99313.34;5070562;28;20057;-62
2022/09/10 06:44:15;;;;;;;7.63;5.72;;;;;;;18.86;67.80;99305.19;5069210;28;20140;-62
2022/09/10 06:46:42;;;;;;;7.05;5.35;;;;;;;18.86;67.83;99307.84;5070770;28;20497;-63
2022/09/10 06:49:30;;;;;;;9.68;5.35;;;;;;;18.86;67.72;99311.38;5070334;28;20052;-62
2022/09/10 06:51:56;;;;;;;9.35;5.68;;;;;;;18.84;67.43;99309.84;5070764;28;20052;-61
2022/09/10 06:54:25;;;;;;;8.00;5.93;;;;;;;18.82;67.52;99310.00;5070522;28;20099;-61
2022/09/10 06:56:51;;;;;;;10.65;6.20;;;;;;;18.79;67.30;99302.28;5071091;28;20049;-61
2022/09/10 06:59:18;;;;;;;6.32;5.32;;;;;;;18.77;67.70;99306.94;5070593;28;20048;-64
2022/09/10 07:01:46;;;;;;;7.95;5.85;;;;;;;18.77;67.60;99303.44;5070564;28;20125;-61
2022/09/10 07:04:13;;;;;;;8.82;5.95;;;;;;;18.76;67.60;99307.91;5070852;28;20056;-62
2022/09/10 07:06:39;;;;;;;7.13;5.55;;;;;;;18.77;68.04;99309.63;5070168;28;20067;-61
2022/09/10 07:09:06;;;;;;;8.93;5.80;;;;;;;18.75;67.77;99314.25;5070175;28;20052;-62
2022/09/10 07:11:33;;;;;;;8.82;5.75;;;;;;;18.74;67.57;99307.25;5070583;28;20465;-62
2022/09/10 07:14:11;;;;;;;9.70;6.55;;;;;;;18.72;67.83;99303.88;5070548;28;20044;-62
2022/09/10 07:16:40;;;;;;;11.30;6.70;;;;;;;18.73;67.55;99309.06;5070477;28;20408;-61
2022/09/10 07:19:07;;;;;;;7.95;6.05;;;;;;;18.72;67.84;99315.38;5070159;28;20514;-62
2022/09/10 07:21:36;;;;;;;8.38;6.32;;;;;;;18.71;67.66;99318.22;5070022;28;20087;-62
2022/09/10 07:24:04;;;;;;;6.95;5.85;;;;;;;18.70;67.81;99320.06;5068547;28;20123;-62
2022/09/10 07:26:31;;;;;;;11.52;6.57;;;;;;;18.69;67.75;99312.19;5074635;28;20056;-64
2022/09/10 07:28:58;;;;;;;9.82;6.95;;;;;;;18.68;67.93;99318.50;5074420;28;20459;-63
2022/09/10 07:31:26;;;;;;;9.38;6.45;;;;;;;18.67;67.88;99323.00;5074445;28;20098;-62
2022/09/10 07:33:54;;;;;;;7.28;6.50;;;;;;;18.68;68.17;99324.69;5074424;28;20045;-62
2022/09/10 07:36:20;;;;;;;9.23;6.40;;;;;;;18.69;68.07;99331.69;5072878;28;20094;-62
2022/09/10 07:38:51;;;;;;;8.60;7.05;;;;;;;18.70;68.35;99333.38;5073817;28;20056;-63
2022/09/10 07:41:18;;;;;;;10.68;7.13;;;;;;;18.74;68.38;99345.41;5074387;28;20084;-62
2022/09/10 07:43:45;;;;;;;8.65;7.35;;;;;;;18.77;68.18;99336.28;5074152;28;20133;-63
2022/09/10 07:46:19;;;;;;;10.55;7.45;;;;;;;18.76;68.01;99337.25;5074301;28;20139;-62
2022/09/10 07:48:50;;;;;;;7.82;6.80;;;;;;;18.80;68.01;99343.97;5073694;28;20048;-62
2022/09/10 07:51:18;;;;;;;9.98;6.93;;;;;;;18.81;67.90;99345.66;5072921;28;20564;-62
2022/09/10 07:53:45;;;;;;;11.70;8.20;;;;;;;18.84;67.79;99344.50;5072210;28;20048;-62
2022/09/10 07:56:16;;;;;;;9.93;7.25;;;;;;;18.86;67.98;99348.69;5073857;28;20048;-62
2022/09/10 07:58:42;;;;;;;9.43;8.23;;;;;;;18.87;67.94;99350.38;5074186;28;20079;-62
2022/09/10 08:01:11;;;;;;;8.75;7.60;;;;;;;18.88;67.69;99348.56;5074461;28;20101;-62
2022/09/10 08:03:38;;;;;;;7.70;6.90;;;;;;;18.88;67.68;99353.88;5073780;28;20541;-62
2022/09/10 08:06:07;;;;;;;7.45;6.43;;;;;;;18.89;68.06;99351.03;5073961;28;20048;-62
2022/09/10 08:08:37;;;;;;;7.60;6.65;;;;;;;18.91;68.08;99347.41;5073739;28;20072;-62
2022/09/10 08:11:10;;;;;;;8.20;6.55;;;;;;;18.95;67.98;99352.28;5073193;28;20408;-62
2022/09/10 08:13:44;;;;;;;6.50;5.60;;;;;;;18.98;68.27;99351.97;5072953;28;20083;-62
2022/09/10 08:16:14;;;;;;;5.78;5.28;;;;;;;19.06;68.36;99351.22;5073703;28;20045;-62
2022/09/10 08:18:42;;;;;;;7.38;6.13;;;;;;;19.14;68.72;99353.97;5071974;28;20451;-62
2022/09/10 08:21:09;;;;;;;5.50;5.00;;;;;;;19.22;68.75;99352.38;5073578;28;20102;-62
2022/09/10 08:23:40;;;;;;;5.68;5.18;;;;;;;19.31;68.41;99366.59;5072242;28;20538;-63
2022/09/10 08:26:07;;;;;;;5.45;4.95;;;;;;;19.38;68.19;99365.84;5073136;28;20080;-61
2022/09/10 08:28:35;;;;;;;5.63;4.90;;;;;;;19.46;68.18;99358.88;5072956;28;20056;-61
2022/09/10 08:31:07;;;;;;;5.50;5.00;;;;;;;19.52;67.62;99366.28;5073505;28;20045;-61
2022/09/10 08:33:35;;;;;;;7.87;5.50;;;;;;;19.60;67.66;99369.03;5073404;28;20045;-64
2022/09/10 08:36:04;;;;;;;5.78;4.82;;;;;;;19.67;67.41;99369.25;5072519;28;20464;-63
2022/09/10 08:38:36;;;;;;;5.50;5.00;;;;;;;19.72;67.38;99371.41;5072004;28;20543;-63
2022/09/10 08:41:17;;;;;;;6.22;4.85;;;;;;;19.77;67.28;99369.09;5071736;28;20045;-63
2022/09/10 08:43:50;;;;;;;4.90;4.43;;;;;;;19.85;66.92;99377.19;5073150;28;20075;-63
2022/09/10 08:46:23;;;;;;;5.35;4.72;;;;;;;19.90;66.53;99382.91;5072508;28;20178;-64
2022/09/10 08:49:01;;;;;;;5.90;4.43;;;;;;;19.92;66.26;99380.91;5071455;28;20084;-62
2022/09/10 08:51:32;;;;;;;5.30;4.80;;;;;;;19.97;66.11;99384.94;5073142;28;20143;-62
2022/09/10 08:54:11;;;;;;;6.43;5.00;;;;;;;19.93;65.83;99381.75;5071449;28;20052;-63
2022/09/10 08:56:40;;;;;;;5.95;5.28;;;;;;;19.95;66.18;99392.28;5071525;28;20083;-63
2022/09/10 08:59:19;;;;;;;4.68;4.28;;;;;;;19.90;65.95;99393.59;5072492;28;20056;-62
2022/09/10 09:01:59;;;;;;;5.15;4.75;;;;;;;19.89;65.79;99391.91;5071345;28;20140;-62
2022/09/10 09:04:41;;;;;;;5.55;5.05;;;;;;;19.86;65.81;99392.22;5072736;28;20109;-61
2022/09/10 09:07:14;;;;;;;5.45;4.95;;;;;;;19.87;65.64;99393.03;5072358;28;20098;-62
2022/09/10 09:09:40;;;;;;;5.43;4.90;;;;;;;19.88;66.17;99397.38;5070974;28;20045;-62
2022/09/10 09:12:35;;;;;;;5.00;4.50;;;;;;;19.85;65.97;99397.72;5072409;28;20143;-63
2022/09/10 09:15:10;;;;;;;4.88;4.50;;;;;;;19.87;66.04;99401.06;5072295;28;20048;-62
2022/09/10 09:18:00;;;;;;;4.80;4.40;;;;;;;19.84;66.09;99399.53;5071253;28;20576;-62
2022/09/10 09:20:48;;;;;;;5.13;4.07;;;;;;;19.87;66.42;99407.25;5065292;28;20143;-62
2022/09/10 09:23:42;;;;;;;4.15;3.75;;;;;;;19.92;66.07;99402.28;5072679;28;20584;-62
2022/09/10 09:26:34;;;;;;;3.88;3.58;;;;;;;19.99;66.12;99404.34;5072578;28;20064;-62
2022/09/10 09:29:11;;;;;;;4.00;3.58;;;;;;;20.03;65.91;99411.03;5070659;28;20049;-62
2022/09/10 09:31:45;;;;;;;4.35;3.60;;;;;;;20.07;65.72;99419.59;5072289;28;20227;-62
2022/09/10 09:34:26;;;;;;;3.95;3.63;;;;;;;20.09;65.75;99413.09;5071961;28;20048;-65
2022/09/10 09:36:55;;;;;;;3.40;3.10;;;;;;;20.14;66.08;99413.44;5072246;28;20131;-62
2022/09/10 09:39:40;;;;;;;3.42;3.08;;;;;;;20.17;66.63;99414.97;5070612;28;20146;-61
2022/09/10 09:42:27;;;;;;;3.28;3.08;;;;;;;20.24;66.37;99415.16;5071900;28;20064;-62
2022/09/10 09:45:01;;;;;;;3.80;3.50;;;;;;;20.35;66.25;99406.88;5070709;28;20519;-62
2022/09/10 09:47:27;;;;;;;2.67;2.47;;;;;;;20.48;66.80;99414.44;5070912;28;20057;-61
2022/09/10 09:49:54;;;;;;;3.67;2.42;;;;;;;20.59;67.18;99415.16;5071330;28;20485;-62
2022/09/10 09:52:25;;;;;;;2.35;2.15;;;;;;;20.70;66.74;99414.84;5072020;28;20098;-61
2022/09/10 09:54:57;;;;;;;2.92;2.67;;;;;;;20.84;65.49;99416.06;5071796;28;20110;-62
2022/09/10 09:57:41;;;;;;;2.42;2.25;;;;;;;20.99;65.63;99410.09;5070396;28;20044;-63
2022/09/10 10:00:31;;;;;;;3.10;2.80;;;;;;;21.03;63.69;99417.66;5071660;28;20091;-63
2022/09/10 10:03:06;;;;;;;4.18;2.90;;;;;;;21.11;63.58;99414.16;5061903;28;20492;-63
2022/09/10 10:05:32;;;;;;;3.58;2.78;;;;;;;21.19;64.51;99419.50;5070042;28;20155;-64
2022/09/10 10:07:59;;;;;;;3.28;3.00;;;;;;;21.23;64.37;99417.34;5057881;28;20076;-61
2022/09/10 10:10:27;;;;;;;3.72;2.70;;;;;;;21.27;64.21;99413.31;5071011;28;20088;-62
2022/09/10 10:12:54;;;;;;;3.38;3.10;;;;;;;21.35;64.39;99417.88;5071204;28;20106;-62
2022/09/10 10:15:43;;;;;;;3.83;3.38;;;;;;;21.40;63.54;99414.69;5070092;28;20088;-64
2022/09/10 10:18:21;;;;;;;3.53;3.22;;;;;;;21.53;62.85;99415.00;5070893;28;20048;-63
2022/09/10 10:21:10;;;;;;;3.55;3.25;;;;;;;21.64;63.19;99411.16;5071300;28;20131;-61
2022/09/10 10:23:37;;;;;;;4.47;3.90;;;;;;;21.78;63.30;99412.34;5070609;28;20063;-64
2022/09/10 10:26:19;;;;;;;3.42;3.13;;;;;;;21.82;62.51;99407.47;5071277;28;20052;-63
2022/09/10 10:28:47;;;;;;;3.35;2.95;;;;;;;21.94;63.14;99400.75;5071188;28;20099;-63
2022/09/10 10:31:16;;;;;;;3.60;3.30;;;;;;;22.03;62.36;99398.06;5070821;28;20048;-63
2022/09/10 10:34:22;;;;;;;3.35;3.03;;;;;;;22.07;61.07;99392.22;5069716;28;20568;-63
2022/09/10 10:37:21;;;;;;;3.47;3.17;;;;;;;22.17;60.13;99397.38;5060290;28;20131;-62
2022/09/10 10:40:07;;;;;;;2.83;2.63;;;;;;;22.23;59.81;99398.50;5065061;28;20464;-62
2022/09/10 10:42:45;;;;;;;3.20;2.90;;;;;;;22.26;59.16;99390.13;5070564;28;20052;-62
2022/09/10 10:45:30;;;;;;;3.58;3.25;;;;;;;22.24;59.62;99390.28;5069491;28;20084;-63
2022/09/10 10:48:11;;;;;;;5.47;3.70;;;;;;;22.24;60.16;99387.63;5070600;28;20049;-62
2022/09/10 10:51:03;;;;;;;3.92;3.03;;;;;;;22.25;60.83;99394.66;5070488;28;20489;-62
2022/09/10 10:53:49;;;;;;;3.80;3.30;;;;;;;22.36;61.37;99393.44;5069817;28;20494;-62
2022/09/10 10:56:24;;;;;;;3.92;3.42;;;;;;;22.45;61.09;99391.56;5070130;28;20124;-64
2022/09/10 10:58:51;;;;;;;5.15;3.80;;;;;;;22.52;61.50;99392.53;5070696;28;20254;-62
2022/09/10 11:01:23;;;;;;;3.92;3.47;;;;;;;22.62;60.57;99396.88;5070463;28;20048;-63
2022/09/10 11:04:14;;;;;;;4.22;3.88;;;;;;;22.69;60.11;99391.66;5069299;28;20048;-62
2022/09/10 11:06:50;;;;;;;4.13;3.72;;;;;;;22.78;59.82;99393.28;5070075;28;20148;-62
2022/09/10 11:09:33;;;;;;;3.85;3.55;;;;;;;22.84;59.04;99389.88;5070499;28;20426;-63
2022/09/10 11:12:10;;;;;;;3.47;3.17;;;;;;;22.89;58.57;99392.03;5070316;28;20484;-63
2022/09/10 11:14:52;;;;;;;4.40;4.00;;;;;;;22.89;58.10;99387.53;5070492;28;20484;-62
2022/09/10 11:17:28;;;;;;;4.80;4.00;;;;;;;22.90;58.03;99388.34;5070300;28;20480;-64
2022/09/10 11:20:07;;;;;;;3.70;3.42;;;;;;;22.87;58.15;99388.69;5069105;28;20535;-62
2022/09/10 11:23:13;;;;;;;4.30;3.90;;;;;;;22.82;58.18;99388.38;5049293;28;20049;-64
2022/09/10 11:25:59;;;;;;;4.80;4.13;;;;;;;22.74;57.70;99394.63;5049285;28;20130;-63
2022/09/10 11:28:38;;;;;;;4.70;4.13;;;;;;;22.68;58.32;99393.50;5050176;28;20053;-63
2022/09/10 11:31:16;;;;;;;4.90;4.43;;;;;;;22.64;58.25;99394.84;5050371;28;20045;-63
2022/09/10 11:34:12;;;;;;;5.18;4.68;;;;;;;22.56;58.80;99400.25;5049983;28;20060;-63
2022/09/10 11:36:49;;;;;;;4.63;4.22;;;;;;;22.55;59.06;99401.28;5049299;28;20086;-62
2022/09/10 11:39:48;;;;;;;5.18;4.68;;;;;;;22.50;58.07;99397.25;5069251;28;20044;-63
2022/09/10 11:42:26;;;;;;;4.85;4.35;;;;;;;22.47;58.48;99400.25;5068102;28;20131;-64
2022/09/10 11:45:01;;;;;;;5.93;4.45;;;;;;;22.46;58.08;99408.50;5070104;28;20049;-65
2022/09/10 11:47:34;;;;;;;4.72;4.32;;;;;;;22.44;59.06;99403.31;5070381;28;20479;-62
2022/09/10 11:50:16;;;;;;;4.93;4.43;;;;;;;22.38;58.35;99410.19;5068645;28;20057;-63
2022/09/10 11:52:42;;;;;;;5.05;4.65;;;;;;;22.40;59.10;99396.63;5070058;28;20091;-63